DAUG/GHA METAR and TAF weather

Enter ICAO airport designator
Station Type Date Time Source
DAUG METAR 2019/08/24 20:00 UTC NOAA

DAUG 242000Z 18008KT 6000 HZ FEW033CB SCT040 31/15 Q1014


Station Type Date Time Source
DAUG Decoded METAR 2019/08/24 20:00 UTC NOAA

Station name not available
Aug 24, 2019 - 04:00 PM EDT / 2019.08.24 2000 UTC
Wind: from the S (180 degrees) at 9 MPH (8 KT):0
Visibility: 3 mile(s):0
Sky conditions: partly cloudy
Weather: haze; Cumulonimbus clouds observed
Temperature: 87 F (31 C)
Dew Point: 59 F (15 C)
Relative Humidity: 37%
Pressure (altimeter): 29.94 in. Hg (1014 hPa)
ob: DAUG 242000Z 18008KT 6000 HZ FEW033CB SCT040 31/15 Q1014
cycle: 20

Station Type Date Time Source
DAUG TAF 2019/08/24 18:33 UTC NOAA

TAF TAF DAUG 241700Z 2418/2518 02010KT 8000 NSC
TEMPO 2418/2421 35015G30KT 5000 TSRA FEW040CB PROB40
TEMPO 2418/2422 02020G30KT 1500 BLSA
BECMG 2422/2501 VRB02KT
BECMG 2508/2510 04010KT

Example: see airport list